sensor_id;sensor_type;location;lat;lon;timestamp;pressure;altitude;pressure_sealevel;temperature;humidity
64551;BME280;74341;44.510;-123.270;2023-12-07T00:01:20;100110.16;;;8.95;100.00
64551;BME280;74341;44.510;-123.270;2023-12-07T00:03:46;100116.66;;;8.94;100.00
64551;BME280;74341;44.510;-123.270;2023-12-07T00:06:13;100119.75;;;8.91;100.00
64551;BME280;74341;44.510;-123.270;2023-12-07T00:08:39;100111.06;;;8.87;100.00
64551;BME280;74341;44.510;-123.270;2023-12-07T00:11:05;100117.06;;;8.83;100.00
64551;BME280;74341;44.510;-123.270;2023-12-07T00:13:32;100121.19;;;8.79;100.00
64551;BME280;74341;44.510;-123.270;2023-12-07T00:15:58;100119.84;;;8.74;100.00
64551;BME280;74341;44.510;-123.270;2023-12-07T00:18:24;100120.38;;;8.70;100.00
64551;BME280;74341;44.510;-123.270;2023-12-07T00:20:51;100124.31;;;8.67;100.00
64551;BME280;74341;44.510;-123.270;2023-12-07T00:23:17;100122.94;;;8.63;100.00
64551;BME280;74341;44.510;-123.270;2023-12-07T00:25:44;100128.94;;;8.59;100.00
64551;BME280;74341;44.510;-123.270;2023-12-07T00:28:11;100134.22;;;8.60;100.00
64551;BME280;74341;44.510;-123.270;2023-12-07T00:30:38;100129.78;;;8.59;100.00
64551;BME280;74341;44.510;-123.270;2023-12-07T00:33:04;100127.06;;;8.59;100.00
64551;BME280;74341;44.510;-123.270;2023-12-07T00:35:30;100130.47;;;8.61;100.00
64551;BME280;74341;44.510;-123.270;2023-12-07T00:37:57;100129.78;;;8.59;100.00
64551;BME280;74341;44.510;-123.270;2023-12-07T00:40:23;100145.47;;;8.57;100.00
64551;BME280;74341;44.510;-123.270;2023-12-07T00:42:50;100149.41;;;8.54;100.00
64551;BME280;74341;44.510;-123.270;2023-12-07T00:48:38;100146.53;;;8.48;100.00
64551;BME280;74341;44.510;-123.270;2023-12-07T00:51:04;100154.03;;;8.46;100.00
64551;BME280;74341;44.510;-123.270;2023-12-07T00:53:34;100156.06;;;8.44;100.00
64551;BME280;74341;44.510;-123.270;2023-12-07T00:56:02;100156.41;;;8.41;100.00
64551;BME280;74341;44.510;-123.270;2023-12-07T00:58:28;100163.22;;;8.36;100.00
64551;BME280;74341;44.510;-123.270;2023-12-07T01:00:54;100170.03;;;8.32;100.00
64551;BME280;74341;44.510;-123.270;2023-12-07T01:03:21;100173.09;;;8.29;100.00
64551;BME280;74341;44.510;-123.270;2023-12-07T01:05:47;100162.56;;;8.26;100.00
64551;BME280;74341;44.510;-123.270;2023-12-07T01:08:14;100178.22;;;8.24;100.00
64551;BME280;74341;44.510;-123.270;2023-12-07T01:10:40;100171.25;;;8.22;100.00
64551;BME280;74341;44.510;-123.270;2023-12-07T01:13:07;100166.16;;;8.18;100.00
64551;BME280;74341;44.510;-123.270;2023-12-07T01:15:33;100155.63;;;8.15;100.00
64551;BME280;74341;44.510;-123.270;2023-12-07T01:17:59;100171.28;;;8.13;100.00
64551;BME280;74341;44.510;-123.270;2023-12-07T01:20:26;100155.47;;;8.09;100.00
64551;BME280;74341;44.510;-123.270;2023-12-07T01:22:52;100161.09;;;8.07;100.00
64551;BME280;74341;44.510;-123.270;2023-12-07T01:25:19;100157.03;;;8.03;100.00
64551;BME280;74341;44.510;-123.270;2023-12-07T01:27:47;100155.47;;;8.00;100.00
64551;BME280;74341;44.510;-123.270;2023-12-07T01:30:14;100152.09;;;7.98;100.00
64551;BME280;74341;44.510;-123.270;2023-12-07T01:32:41;100157.03;;;7.95;100.00
64551;BME280;74341;44.510;-123.270;2023-12-07T01:35:07;100155.50;;;7.92;100.00
64551;BME280;74341;44.510;-123.270;2023-12-07T01:37:34;100156.69;;;7.90;100.00
64551;BME280;74341;44.510;-123.270;2023-12-07T01:40:01;100158.72;;;7.88;100.00
64551;BME280;74341;44.510;-123.270;2023-12-07T01:42:31;100148.84;;;7.87;100.00
64551;BME280;74341;44.510;-123.270;2023-12-07T01:44:58;100154.47;;;7.85;100.00
64551;BME280;74341;44.510;-123.270;2023-12-07T01:47:24;100150.06;;;7.84;100.00
64551;BME280;74341;44.510;-123.270;2023-12-07T01:49:51;100148.88;;;7.78;100.00
64551;BME280;74341;44.510;-123.270;2023-12-07T01:52:19;100152.28;;;7.72;100.00
64551;BME280;74341;44.510;-123.270;2023-12-07T01:54:48;100147.53;;;7.66;100.00
64551;BME280;74341;44.510;-123.270;2023-12-07T01:57:14;100148.03;;;7.61;100.00
64551;BME280;74341;44.510;-123.270;2023-12-07T01:59:41;100157.72;;;7.56;100.00
64551;BME280;74341;44.510;-123.270;2023-12-07T02:02:08;100171.81;;;7.51;100.00
64551;BME280;74341;44.510;-123.270;2023-12-07T02:04:35;100167.59;;;7.49;100.00
64551;BME280;74341;44.510;-123.270;2023-12-07T02:07:02;100171.31;;;7.48;100.00
64551;BME280;74341;44.510;-123.270;2023-12-07T02:09:30;100183.91;;;7.49;100.00
64551;BME280;74341;44.510;-123.270;2023-12-07T02:11:59;100188.34;;;7.50;100.00
64551;BME280;74341;44.510;-123.270;2023-12-07T02:14:26;100180.19;;;7.50;100.00
64551;BME280;74341;44.510;-123.270;2023-12-07T02:17:18;100193.59;;;7.51;100.00
64551;BME280;74341;44.510;-123.270;2023-12-07T02:19:55;100182.72;;;7.51;100.00
64551;BME280;74341;44.510;-123.270;2023-12-07T02:22:31;100180.19;;;7.50;100.00
64551;BME280;74341;44.510;-123.270;2023-12-07T02:25:18;100183.59;;;7.52;100.00
64551;BME280;74341;44.510;-123.270;2023-12-07T02:27:45;100182.72;;;7.51;100.00
64551;BME280;74341;44.510;-123.270;2023-12-07T02:30:17;100181.88;;;7.51;100.00
64551;BME280;74341;44.510;-123.270;2023-12-07T02:32:45;100185.44;;;7.51;100.00
64551;BME280;74341;44.510;-123.270;2023-12-07T02:35:12;100177.25;;;7.51;100.00
64551;BME280;74341;44.510;-123.270;2023-12-07T02:37:45;100190.69;;;7.53;100.00
64551;BME280;74341;44.510;-123.270;2023-12-07T02:40:15;100186.97;;;7.54;100.00
64551;BME280;74341;44.510;-123.270;2023-12-07T02:42:43;100202.25;;;7.55;100.00
64551;BME280;74341;44.510;-123.270;2023-12-07T02:45:10;100194.81;;;7.57;100.00
64551;BME280;74341;44.510;-123.270;2023-12-07T02:47:38;100196.50;;;7.58;100.00
64551;BME280;74341;44.510;-123.270;2023-12-07T02:50:06;100199.22;;;7.58;100.00
64551;BME280;74341;44.510;-123.270;2023-12-07T02:52:33;100212.66;;;7.59;100.00
64551;BME280;74341;44.510;-123.270;2023-12-07T02:54:59;100199.03;;;7.59;100.00
64551;BME280;74341;44.510;-123.270;2023-12-07T02:57:25;100198.03;;;7.60;100.00
64551;BME280;74341;44.510;-123.270;2023-12-07T02:59:52;100196.16;;;7.61;100.00
64551;BME280;74341;44.510;-123.270;2023-12-07T03:02:18;100203.28;;;7.62;100.00
64551;BME280;74341;44.510;-123.270;2023-12-07T03:04:45;100196.84;;;7.63;100.00
64551;BME280;74341;44.510;-123.270;2023-12-07T03:07:11;100197.69;;;7.64;100.00
64551;BME280;74341;44.510;-123.270;2023-12-07T03:09:37;100204.84;;;7.65;100.00
64551;BME280;74341;44.510;-123.270;2023-12-07T03:12:04;100197.50;;;7.65;100.00
64551;BME280;74341;44.510;-123.270;2023-12-07T03:14:30;100206.50;;;7.66;100.00
64551;BME280;74341;44.510;-123.270;2023-12-07T03:16:57;100199.38;;;7.65;100.00
64551;BME280;74341;44.510;-123.270;2023-12-07T03:19:23;100202.97;;;7.65;100.00
64551;BME280;74341;44.510;-123.270;2023-12-07T03:21:52;100211.97;;;7.66;100.00
64551;BME280;74341;44.510;-123.270;2023-12-07T03:24:18;100205.84;;;7.64;100.00
64551;BME280;74341;44.510;-123.270;2023-12-07T03:26:45;100201.28;;;7.64;100.00
64551;BME280;74341;44.510;-123.270;2023-12-07T03:29:11;100211.13;;;7.65;100.00
64551;BME280;74341;44.510;-123.270;2023-12-07T03:31:38;100214.88;;;7.64;100.00
64551;BME280;74341;44.510;-123.270;2023-12-07T03:34:08;100208.56;;;7.64;100.00
64551;BME280;74341;44.510;-123.270;2023-12-07T03:36:34;100223.03;;;7.64;100.00
64551;BME280;74341;44.510;-123.270;2023-12-07T03:39:01;100227.59;;;7.64;100.00
64551;BME280;74341;44.510;-123.270;2023-12-07T03:41:29;100230.31;;;7.64;100.00
64551;BME280;74341;44.510;-123.270;2023-12-07T03:43:55;100225.75;;;7.64;100.00
64551;BME280;74341;44.510;-123.270;2023-12-07T03:46:21;100242.25;;;7.63;100.00
64551;BME280;74341;44.510;-123.270;2023-12-07T03:48:48;100236.81;;;7.63;100.00
64551;BME280;74341;44.510;-123.270;2023-12-07T03:51:14;100234.25;;;7.61;100.00
64551;BME280;74341;44.510;-123.270;2023-12-07T03:53:42;100240.38;;;7.63;100.00
64551;BME280;74341;44.510;-123.270;2023-12-07T03:56:09;100237.66;;;7.63;100.00
64551;BME280;74341;44.510;-123.270;2023-12-07T03:58:36;100242.94;;;7.65;100.00
64551;BME280;74341;44.510;-123.270;2023-12-07T04:01:02;100245.31;;;7.68;100.00
64551;BME280;74341;44.510;-123.270;2023-12-07T04:03:29;100253.31;;;7.69;100.00
64551;BME280;74341;44.510;-123.270;2023-12-07T04:05:55;100254.84;;;7.72;100.00
64551;BME280;74341;44.510;-123.270;2023-12-07T04:08:21;100252.78;;;7.74;100.00
64551;BME280;74341;44.510;-123.270;2023-12-07T04:10:48;100244.63;;;7.74;100.00
64551;BME280;74341;44.510;-123.270;2023-12-07T04:13:14;100239.34;;;7.72;100.00
64551;BME280;74341;44.510;-123.270;2023-12-07T04:15:40;100250.22;;;7.72;100.00
64551;BME280;74341;44.510;-123.270;2023-12-07T04:18:07;100249.38;;;7.72;100.00
64551;BME280;74341;44.510;-123.270;2023-12-07T04:20:33;100251.09;;;7.73;100.00
64551;BME280;74341;44.510;-123.270;2023-12-07T04:22:59;100254.50;;;7.75;100.00
64551;BME280;74341;44.510;-123.270;2023-12-07T04:25:26;100256.34;;;7.74;100.00
64551;BME280;74341;44.510;-123.270;2023-12-07T04:27:52;100264.50;;;7.74;100.00
64551;BME280;74341;44.510;-123.270;2023-12-07T04:30:18;100272.50;;;7.76;100.00
64551;BME280;74341;44.510;-123.270;2023-12-07T04:32:45;100258.75;;;7.77;100.00
64551;BME280;74341;44.510;-123.270;2023-12-07T04:35:11;100258.06;;;7.75;100.00
64551;BME280;74341;44.510;-123.270;2023-12-07T04:37:37;100255.66;;;7.72;100.00
64551;BME280;74341;44.510;-123.270;2023-12-07T04:40:04;100256.19;;;7.68;100.00
64551;BME280;74341;44.510;-123.270;2023-12-07T04:42:31;100253.28;;;7.61;100.00
64551;BME280;74341;44.510;-123.270;2023-12-07T04:44:58;100267.38;;;7.56;100.00
64551;BME280;74341;44.510;-123.270;2023-12-07T04:47:24;100271.63;;;7.51;100.00
64551;BME280;74341;44.510;-123.270;2023-12-07T04:49:50;100271.28;;;7.46;100.00
64551;BME280;74341;44.510;-123.270;2023-12-07T04:52:17;100274.69;;;7.39;100.00
64551;BME280;74341;44.510;-123.270;2023-12-07T04:54:43;100282.63;;;7.33;100.00
64551;BME280;74341;44.510;-123.270;2023-12-07T04:57:09;100279.72;;;7.26;100.00
64551;BME280;74341;44.510;-123.270;2023-12-07T04:59:36;100273.75;;;7.22;100.00
64551;BME280;74341;44.510;-123.270;2023-12-07T05:02:02;100277.16;;;7.16;100.00
64551;BME280;74341;44.510;-123.270;2023-12-07T05:04:29;100286.63;;;7.12;100.00
64551;BME280;74341;44.510;-123.270;2023-12-07T05:06:55;100281.53;;;7.09;100.00
64551;BME280;74341;44.510;-123.270;2023-12-07T05:09:21;100277.13;;;7.08;100.00
64551;BME280;74341;44.510;-123.270;2023-12-07T05:11:48;100279.16;;;7.06;100.00
64551;BME280;74341;44.510;-123.270;2023-12-07T05:14:14;100278.31;;;7.06;100.00
64551;BME280;74341;44.510;-123.270;2023-12-07T05:16:41;100281.19;;;7.04;100.00
64551;BME280;74341;44.510;-123.270;2023-12-07T05:19:07;100285.06;;;7.01;100.00
64551;BME280;74341;44.510;-123.270;2023-12-07T05:21:33;100293.56;;;6.98;100.00
64551;BME280;74341;44.510;-123.270;2023-12-07T05:24:00;100298.13;;;6.98;100.00
64551;BME280;74341;44.510;-123.270;2023-12-07T05:26:28;100299.47;;;6.94;100.00
64551;BME280;74341;44.510;-123.270;2023-12-07T05:28:55;100286.38;;;6.89;100.00
64551;BME280;74341;44.510;-123.270;2023-12-07T05:31:22;100295.03;;;6.84;100.00
64551;BME280;74341;44.510;-123.270;2023-12-07T05:33:48;100297.22;;;6.81;100.00
64551;BME280;74341;44.510;-123.270;2023-12-07T05:36:14;100292.09;;;6.78;100.00
64551;BME280;74341;44.510;-123.270;2023-12-07T05:38:41;100300.25;;;6.78;100.00
64551;BME280;74341;44.510;-123.270;2023-12-07T05:41:07;100297.84;;;6.75;100.00
64551;BME280;74341;44.510;-123.270;2023-12-07T05:43:33;100300.56;;;6.75;100.00
64551;BME280;74341;44.510;-123.270;2023-12-07T05:46:00;100297.69;;;6.76;100.00
64551;BME280;74341;44.510;-123.270;2023-12-07T05:48:26;100300.56;;;6.75;100.00
64551;BME280;74341;44.510;-123.270;2023-12-07T05:50:53;100311.28;;;6.76;100.00
64551;BME280;74341;44.510;-123.270;2023-12-07T05:53:19;100317.38;;;6.78;100.00
64551;BME280;74341;44.510;-123.270;2023-12-07T05:55:48;100316.22;;;6.81;100.00
64551;BME280;74341;44.510;-123.270;2023-12-07T05:58:15;100318.78;;;6.82;100.00
64551;BME280;74341;44.510;-123.270;2023-12-07T06:00:43;100317.75;;;6.83;100.00
64551;BME280;74341;44.510;-123.270;2023-12-07T06:03:16;100323.03;;;6.85;100.00
64551;BME280;74341;44.510;-123.270;2023-12-07T06:05:42;100322.72;;;6.88;100.00
64551;BME280;74341;44.510;-123.270;2023-12-07T06:08:12;100312.69;;;6.89;100.00
64551;BME280;74341;44.510;-123.270;2023-12-07T06:10:39;100320.00;;;6.88;100.00
64551;BME280;74341;44.510;-123.270;2023-12-07T06:13:05;100320.84;;;6.89;100.00
64551;BME280;74341;44.510;-123.270;2023-12-07T06:15:33;100317.97;;;6.90;100.00
64551;BME280;74341;44.510;-123.270;2023-12-07T06:17:59;100325.28;;;6.90;100.00
64551;BME280;74341;44.510;-123.270;2023-12-07T06:20:26;100329.00;;;6.89;100.00
64551;BME280;74341;44.510;-123.270;2023-12-07T06:22:52;100317.59;;;6.85;100.00
64551;BME280;74341;44.510;-123.270;2023-12-07T06:25:19;100325.44;;;6.88;100.00
64551;BME280;74341;44.510;-123.270;2023-12-07T06:27:46;100335.47;;;6.88;100.00
64551;BME280;74341;44.510;-123.270;2023-12-07T06:30:12;100333.75;;;6.87;100.00
64551;BME280;74341;44.510;-123.270;2023-12-07T06:32:39;100334.59;;;6.87;100.00
64551;BME280;74341;44.510;-123.270;2023-12-07T06:35:06;100332.03;;;6.85;100.00
64551;BME280;74341;44.510;-123.270;2023-12-07T06:37:36;100330.50;;;6.83;100.00
64551;BME280;74341;44.510;-123.270;2023-12-07T06:40:02;100337.44;;;6.77;100.00
64551;BME280;74341;44.510;-123.270;2023-12-07T06:42:30;100339.47;;;6.75;100.00
64551;BME280;74341;44.510;-123.270;2023-12-07T06:44:56;100337.75;;;6.74;100.00
64551;BME280;74341;44.510;-123.270;2023-12-07T06:47:23;100336.91;;;6.74;100.00
64551;BME280;74341;44.510;-123.270;2023-12-07T06:49:49;100338.75;;;6.73;100.00
64551;BME280;74341;44.510;-123.270;2023-12-07T06:52:15;100345.38;;;6.71;100.00
64551;BME280;74341;44.510;-123.270;2023-12-07T06:54:42;100350.81;;;6.71;100.00
64551;BME280;74341;44.510;-123.270;2023-12-07T06:57:08;100353.38;;;6.72;100.00
64551;BME280;74341;44.510;-123.270;2023-12-07T06:59:35;100362.19;;;6.74;100.00
64551;BME280;74341;44.510;-123.270;2023-12-07T07:02:01;100362.03;;;6.76;100.00
64551;BME280;74341;44.510;-123.270;2023-12-07T07:04:28;100368.16;;;6.78;100.00
64551;BME280;74341;44.510;-123.270;2023-12-07T07:06:55;100360.72;;;6.80;100.00
64551;BME280;74341;44.510;-123.270;2023-12-07T07:09:23;100363.25;;;6.81;100.00
64551;BME280;74341;44.510;-123.270;2023-12-07T07:11:49;100372.09;;;6.83;100.00
64551;BME280;74341;44.510;-123.270;2023-12-07T07:14:16;100381.97;;;6.84;100.00
64551;BME280;74341;44.510;-123.270;2023-12-07T07:16:47;100368.22;;;6.86;100.00
64551;BME280;74341;44.510;-123.270;2023-12-07T07:19:13;100376.22;;;6.88;100.00
64551;BME280;74341;44.510;-123.270;2023-12-07T07:21:42;100380.63;;;6.89;100.00
64551;BME280;74341;44.510;-123.270;2023-12-07T07:24:09;100374.19;;;6.90;100.00
64551;BME280;74341;44.510;-123.270;2023-12-07T07:26:36;100381.16;;;6.92;100.00
64551;BME280;74341;44.510;-123.270;2023-12-07T07:29:02;100380.16;;;6.93;100.00
64551;BME280;74341;44.510;-123.270;2023-12-07T07:31:29;100386.28;;;6.95;100.00
64551;BME280;74341;44.510;-123.270;2023-12-07T07:33:56;100402.44;;;6.97;100.00
64551;BME280;74341;44.510;-123.270;2023-12-07T07:36:22;100397.84;;;6.97;100.00
64551;BME280;74341;44.510;-123.270;2023-12-07T07:38:49;100403.97;;;6.99;100.00
64551;BME280;74341;44.510;-123.270;2023-12-07T07:41:15;100394.97;;;6.99;100.00
64551;BME280;74341;44.510;-123.270;2023-12-07T07:43:41;100385.09;;;6.98;100.00
64551;BME280;74341;44.510;-123.270;2023-12-07T07:46:08;100381.53;;;6.97;100.00
64551;BME280;74341;44.510;-123.270;2023-12-07T07:48:35;100376.25;;;6.96;100.00
64551;BME280;74341;44.510;-123.270;2023-12-07T07:51:01;100398.00;;;6.96;100.00
64551;BME280;74341;44.510;-123.270;2023-12-07T07:53:28;100384.41;;;6.96;100.00
64551;BME280;74341;44.510;-123.270;2023-12-07T07:55:54;100399.03;;;6.95;100.00
64551;BME280;74341;44.510;-123.270;2023-12-07T07:58:21;100390.00;;;6.94;100.00
64551;BME280;74341;44.510;-123.270;2023-12-07T08:00:47;100400.72;;;6.96;100.00
64551;BME280;74341;44.510;-123.270;2023-12-07T08:03:15;100398.16;;;6.94;100.00
64551;BME280;74341;44.510;-123.270;2023-12-07T08:05:41;100407.19;;;6.95;100.00
64551;BME280;74341;44.510;-123.270;2023-12-07T08:08:07;100411.06;;;6.92;100.00
64551;BME280;74341;44.510;-123.270;2023-12-07T08:10:34;100414.09;;;6.89;100.00
64551;BME280;74341;44.510;-123.270;2023-12-07T08:13:01;100411.88;;;6.84;100.00
64551;BME280;74341;44.510;-123.270;2023-12-07T08:15:27;100410.16;;;6.83;100.00
64551;BME280;74341;44.510;-123.270;2023-12-07T08:17:54;100409.63;;;6.80;100.00
64551;BME280;74341;44.510;-123.270;2023-12-07T08:20:22;100404.50;;;6.77;100.00
64551;BME280;74341;44.510;-123.270;2023-12-07T08:22:48;100404.50;;;6.77;100.00
64551;BME280;74341;44.510;-123.270;2023-12-07T08:25:16;100411.78;;;6.76;100.00
64551;BME280;74341;44.510;-123.270;2023-12-07T08:27:43;100411.78;;;6.76;100.00
64551;BME280;74341;44.510;-123.270;2023-12-07T08:30:13;100413.38;;;6.79;100.00
64551;BME280;74341;44.510;-123.270;2023-12-07T08:32:39;100416.06;;;6.79;100.00
64551;BME280;74341;44.510;-123.270;2023-12-07T08:35:06;100420.47;;;6.80;100.00
64551;BME280;74341;44.510;-123.270;2023-12-07T08:37:33;100423.34;;;6.78;100.00
64551;BME280;74341;44.510;-123.270;2023-12-07T08:39:59;100415.69;;;6.74;100.00
64551;BME280;74341;44.510;-123.270;2023-12-07T08:42:26;100418.56;;;6.72;100.00
64551;BME280;74341;44.510;-123.270;2023-12-07T08:44:57;100424.31;;;6.69;100.00
64551;BME280;74341;44.510;-123.270;2023-12-07T08:47:24;100421.06;;;6.65;100.00
64551;BME280;74341;44.510;-123.270;2023-12-07T08:49:53;100414.94;;;6.63;100.00
64551;BME280;74341;44.510;-123.270;2023-12-07T08:52:19;100421.56;;;6.61;100.00
64551;BME280;74341;44.510;-123.270;2023-12-07T08:54:46;100416.41;;;6.58;100.00
64551;BME280;74341;44.510;-123.270;2023-12-07T08:57:12;100420.28;;;6.55;100.00
64551;BME280;74341;44.510;-123.270;2023-12-07T08:59:39;100416.34;;;6.50;100.00
64551;BME280;74341;44.510;-123.270;2023-12-07T09:02:05;100410.53;;;6.44;100.00
64551;BME280;74341;44.510;-123.270;2023-12-07T09:04:32;100401.84;;;6.41;100.00
64551;BME280;74341;44.510;-123.270;2023-12-07T09:06:58;100412.00;;;6.39;100.00
64551;BME280;74341;44.510;-123.270;2023-12-07T09:09:24;100413.03;;;6.38;100.00
64551;BME280;74341;44.510;-123.270;2023-12-07T09:11:51;100415.91;;;6.36;100.00
64551;BME280;74341;44.510;-123.270;2023-12-07T09:14:19;100417.91;;;6.34;100.00
64551;BME280;74341;44.510;-123.270;2023-12-07T09:16:46;100417.34;;;6.31;100.00
64551;BME280;74341;44.510;-123.270;2023-12-07T09:19:12;100419.06;;;6.32;100.00
64551;BME280;74341;44.510;-123.270;2023-12-07T09:21:40;100427.53;;;6.28;100.00
64551;BME280;74341;44.510;-123.270;2023-12-07T09:24:07;100422.25;;;6.27;100.00
64551;BME280;74341;44.510;-123.270;2023-12-07T09:26:33;100423.13;;;6.27;100.00
64551;BME280;74341;44.510;-123.270;2023-12-07T09:29:00;100416.66;;;6.28;100.00
64551;BME280;74341;44.510;-123.270;2023-12-07T09:31:26;100423.81;;;6.30;100.00
64551;BME280;74341;44.510;-123.270;2023-12-07T09:33:53;100425.50;;;6.31;100.00
64551;BME280;74341;44.510;-123.270;2023-12-07T09:36:20;100427.75;;;6.35;100.00
64551;BME280;74341;44.510;-123.270;2023-12-07T09:38:50;100431.16;;;6.37;100.00
64551;BME280;74341;44.510;-123.270;2023-12-07T09:41:16;100436.28;;;6.40;100.00
64551;BME280;74341;44.510;-123.270;2023-12-07T09:43:42;100423.25;;;6.44;100.00
64551;BME280;74341;44.510;-123.270;2023-12-07T09:46:09;100440.09;;;6.47;100.00
64551;BME280;74341;44.510;-123.270;2023-12-07T09:48:37;100452.50;;;6.50;100.00
64551;BME280;74341;44.510;-123.270;2023-12-07T09:51:07;100452.34;;;6.52;100.00
64551;BME280;74341;44.510;-123.270;2023-12-07T09:53:34;100449.63;;;6.52;100.00
64551;BME280;74341;44.510;-123.270;2023-12-07T09:56:01;100446.22;;;6.50;100.00
64551;BME280;74341;44.510;-123.270;2023-12-07T09:58:27;100452.69;;;6.49;100.00
64551;BME280;74341;44.510;-123.270;2023-12-07T10:00:54;100450.13;;;6.47;100.00
64551;BME280;74341;44.510;-123.270;2023-12-07T10:03:23;100451.09;;;6.46;100.00
64551;BME280;74341;44.510;-123.270;2023-12-07T10:05:59;100456.69;;;6.44;100.00
64551;BME280;74341;44.510;-123.270;2023-12-07T10:08:33;100464.28;;;6.41;100.00
64551;BME280;74341;44.510;-123.270;2023-12-07T10:11:10;100457.47;;;6.37;100.00
64551;BME280;74341;44.510;-123.270;2023-12-07T10:13:38;100465.78;;;6.35;100.00
64551;BME280;74341;44.510;-123.270;2023-12-07T10:16:15;100473.06;;;6.35;100.00
64551;BME280;74341;44.510;-123.270;2023-12-07T10:18:43;100471.22;;;6.35;100.00
64551;BME280;74341;44.510;-123.270;2023-12-07T10:21:10;100469.19;;;6.37;100.00
64551;BME280;74341;44.510;-123.270;2023-12-07T10:23:37;100458.16;;;6.39;100.00
64551;BME280;74341;44.510;-123.270;2023-12-07T10:26:07;100461.72;;;6.39;100.00
64551;BME280;74341;44.510;-123.270;2023-12-07T10:28:36;100484.19;;;6.41;100.00
64551;BME280;74341;44.510;-123.270;2023-12-07T10:31:03;100485.03;;;6.42;100.00
64551;BME280;74341;44.510;-123.270;2023-12-07T10:33:30;100488.44;;;6.44;100.00
64551;BME280;74341;44.510;-123.270;2023-12-07T10:35:56;100480.00;;;6.47;100.00
64551;BME280;74341;44.510;-123.270;2023-12-07T10:38:22;100486.09;;;6.49;100.00
64551;BME280;74341;44.510;-123.270;2023-12-07T10:40:55;100476.94;;;6.50;100.00
64551;BME280;74341;44.510;-123.270;2023-12-07T10:43:22;100489.38;;;6.53;100.00
64551;BME280;74341;44.510;-123.270;2023-12-07T10:45:49;100490.91;;;6.55;100.00
64551;BME280;74341;44.510;-123.270;2023-12-07T10:48:16;100489.91;;;6.56;100.00
64551;BME280;74341;44.510;-123.270;2023-12-07T10:50:48;100490.44;;;6.60;100.00
64551;BME280;74341;44.510;-123.270;2023-12-07T10:53:26;100487.44;;;6.63;100.00
64551;BME280;74341;44.510;-123.270;2023-12-07T10:55:56;100492.88;;;6.63;100.00
64551;BME280;74341;44.510;-123.270;2023-12-07T10:58:25;100497.97;;;6.66;100.00
64551;BME280;74341;44.510;-123.270;2023-12-07T11:00:55;100502.41;;;6.67;100.00
64551;BME280;74341;44.510;-123.270;2023-12-07T11:03:24;100489.50;;;6.69;100.00
64551;BME280;74341;44.510;-123.270;2023-12-07T11:05:50;100499.22;;;6.72;100.00
64551;BME280;74341;44.510;-123.270;2023-12-07T11:08:21;100503.47;;;6.74;100.00
64551;BME280;74341;44.510;-123.270;2023-12-07T11:11:20;100500.75;;;6.74;100.00
64551;BME280;74341;44.510;-123.270;2023-12-07T11:13:53;100510.44;;;6.77;100.00
64551;BME280;74341;44.510;-123.270;2023-12-07T11:18:57;100501.47;;;6.76;100.00
64551;BME280;74341;44.510;-123.270;2023-12-07T11:21:24;100498.03;;;6.74;100.00
64551;BME280;74341;44.510;-123.270;2023-12-07T11:23:50;100505.03;;;6.77;100.00
64551;BME280;74341;44.510;-123.270;2023-12-07T11:26:20;100495.34;;;6.74;100.00
64551;BME280;74341;44.510;-123.270;2023-12-07T11:28:46;100490.91;;;6.73;100.00
64551;BME280;74341;44.510;-123.270;2023-12-07T11:31:13;100494.78;;;6.71;100.00
64551;BME280;74341;44.510;-123.270;2023-12-07T11:33:40;100501.94;;;6.72;100.00
64551;BME280;74341;44.510;-123.270;2023-12-07T11:36:08;100500.22;;;6.71;100.00
64551;BME280;74341;44.510;-123.270;2023-12-07T11:38:39;100505.66;;;6.71;100.00
64551;BME280;74341;44.510;-123.270;2023-12-07T11:41:28;100500.38;;;6.69;100.00
64551;BME280;74341;44.510;-123.270;2023-12-07T11:43:58;100494.94;;;6.69;100.00
64551;BME280;74341;44.510;-123.270;2023-12-07T11:46:25;100502.09;;;6.70;100.00
64551;BME280;74341;44.510;-123.270;2023-12-07T11:48:51;100492.06;;;6.71;100.00
64551;BME280;74341;44.510;-123.270;2023-12-07T11:51:18;100498.50;;;6.70;100.00
64551;BME280;74341;44.510;-123.270;2023-12-07T11:53:46;100480.50;;;6.69;100.00
64551;BME280;74341;44.510;-123.270;2023-12-07T11:56:14;100482.53;;;6.66;100.00
64551;BME280;74341;44.510;-123.270;2023-12-07T11:58:44;100485.41;;;6.65;100.00
64551;BME280;74341;44.510;-123.270;2023-12-07T12:01:11;100490.44;;;6.60;100.00
64551;BME280;74341;44.510;-123.270;2023-12-07T12:03:38;100478.75;;;6.59;100.00
64551;BME280;74341;44.510;-123.270;2023-12-07T12:06:05;100483.47;;;6.57;100.00
64551;BME280;74341;44.510;-123.270;2023-12-07T12:08:34;100480.91;;;6.56;100.00
64551;BME280;74341;44.510;-123.270;2023-12-07T12:11:04;100482.06;;;6.53;100.00
64551;BME280;74341;44.510;-123.270;2023-12-07T12:13:34;100491.25;;;6.52;100.00
64551;BME280;74341;44.510;-123.270;2023-12-07T12:16:02;100491.94;;;6.54;100.00
64551;BME280;74341;44.510;-123.270;2023-12-07T12:18:29;100492.78;;;6.55;100.00
64551;BME280;74341;44.510;-123.270;2023-12-07T12:20:55;100491.94;;;6.54;100.00
64551;BME280;74341;44.510;-123.270;2023-12-07T12:23:23;100493.47;;;6.57;100.00
64551;BME280;74341;44.510;-123.270;2023-12-07T12:25:50;100496.19;;;6.57;100.00
64551;BME280;74341;44.510;-123.270;2023-12-07T12:28:18;100509.63;;;6.58;100.00